RYR5867 LCPH-LDZA
Flight info
| Callsign | RYR5867 |
|---|---|
| Flight time | 2h 44m |
| Altitude | 34000 |
| Route | GENOS DCT PEDER DCT LUTIG DCT EXELA UN127 RIKSO DCT FSK DCT DISOR DCT LONTA UL608 DOLEV DCT TIVNU DCT TEBLI |
| Aircraft | B738/M-SDFGHIJ1RWYSB1/L |
Departure
| Time | 2026-04-29 18:04 |
|---|---|
| Airport | Paphos International Airport (LCPH) |
Arrival
| Time | 2026-04-29 20:49 |
|---|---|
| Airport | Zagreb Franjo Tuđman International Airport (LDZA) |
| Time | Latitude | Longitude | Altitude | Speed | Heading |
|---|---|---|---|---|---|
| 2026-04-29 17:10 | 34.71339 | 32.48740 | 45 ft | 0 kts | 155° |
| 2026-04-29 17:53 | 34.71360 | 32.48726 | 42 ft | 4 kts | 145° |
| 2026-04-29 17:53 | 34.71380 | 32.48706 | 43 ft | 4 kts | 130° |
| 2026-04-29 17:53 | 34.71394 | 32.48679 | 43 ft | 4 kts | 107° |
| 2026-04-29 17:54 | 34.71397 | 32.48648 | 40 ft | 4 kts | 71° |
| 2026-04-29 17:54 | 34.71395 | 32.48641 | 41 ft | 3 kts | 65° |
| 2026-04-29 17:56 | 34.71395 | 32.48642 | 41 ft | 0 kts | 65° |
| 2026-04-29 17:57 | 34.71409 | 32.48654 | 42 ft | 6 kts | 30° |
| 2026-04-29 17:57 | 34.71467 | 32.48696 | 43 ft | 12 kts | 31° |
| 2026-04-29 17:57 | 34.71498 | 32.48771 | 45 ft | 12 kts | 128° |
| 2026-04-29 17:57 | 34.71469 | 32.48825 | 45 ft | 12 kts | 97° |
| 2026-04-29 17:58 | 34.71508 | 32.48945 | 45 ft | 11 kts | 63° |
| 2026-04-29 17:58 | 34.71536 | 32.48980 | 45 ft | 0 kts | 10° |
| 2026-04-29 17:59 | 34.71546 | 32.48982 | 45 ft | 5 kts | 10° |
| 2026-04-29 17:59 | 34.71609 | 32.49007 | 46 ft | 14 kts | 19° |
| 2026-04-29 17:59 | 34.71629 | 32.49104 | 46 ft | 14 kts | 111° |
| 2026-04-29 18:00 | 34.71597 | 32.49211 | 44 ft | 14 kts | 110° |
| 2026-04-29 18:00 | 34.71552 | 32.49359 | 41 ft | 23 kts | 110° |
| 2026-04-29 18:00 | 34.71495 | 32.49546 | 43 ft | 23 kts | 109° |
| 2026-04-29 18:00 | 34.71439 | 32.49728 | 41 ft | 25 kts | 111° |
| 2026-04-29 18:01 | 34.71386 | 32.49812 | 43 ft | 8 kts | 164° |
| 2026-04-29 18:01 | 34.71367 | 32.49842 | 44 ft | 1 kts | 58° |
| 2026-04-29 18:01 | 34.71380 | 32.49847 | 42 ft | 3 kts | 8° |
| 2026-04-29 18:01 | 34.71402 | 32.49836 | 43 ft | 4 kts | 315° |
| 2026-04-29 18:02 | 34.71407 | 32.49822 | 42 ft | 0 kts | 290° |
| 2026-04-29 18:02 | 34.71414 | 32.49802 | 43 ft | 0 kts | 290° |
| 2026-04-29 18:03 | 34.71414 | 32.49801 | 43 ft | 0 kts | 290° |
| 2026-04-29 18:03 | 34.71420 | 32.49782 | 43 ft | 12 kts | 291° |
| 2026-04-29 18:03 | 34.71540 | 32.49391 | 41 ft | 87 kts | 290° |
| 2026-04-29 18:04 | 34.71829 | 32.48439 | 46 ft | 151 kts | 290° |
| 2026-04-29 18:04 | 34.72237 | 32.47109 | 439 ft | 174 kts | 290° |
| 2026-04-29 18:04 | 34.72612 | 32.45698 | 1286 ft | 175 kts | 279° |
| 2026-04-29 18:04 | 34.72410 | 32.44273 | 2004 ft | 174 kts | 247° |
| 2026-04-29 18:05 | 34.71975 | 32.42885 | 2666 ft | 177 kts | 250° |
| 2026-04-29 18:05 | 34.71578 | 32.41457 | 3312 ft | 181 kts | 251° |
| 2026-04-29 18:05 | 34.71169 | 32.39902 | 3593 ft | 206 kts | 252° |
| 2026-04-29 18:05 | 34.70733 | 32.38152 | 3782 ft | 227 kts | 252° |
| 2026-04-29 18:06 | 34.70274 | 32.36229 | 4018 ft | 245 kts | 253° |
| 2026-04-29 18:06 | 34.69795 | 32.34149 | 4221 ft | 265 kts | 253° |
| 2026-04-29 18:06 | 34.69302 | 32.31951 | 4813 ft | 272 kts | 254° |
| 2026-04-29 18:06 | 34.68813 | 32.29724 | 5604 ft | 273 kts | 254° |
| 2026-04-29 18:07 | 34.68326 | 32.27485 | 6333 ft | 276 kts | 254° |
| 2026-04-29 18:07 | 34.67835 | 32.25212 | 7027 ft | 279 kts | 255° |
| 2026-04-29 18:07 | 34.67342 | 32.22920 | 7731 ft | 282 kts | 255° |
| 2026-04-29 18:07 | 34.66844 | 32.20603 | 8429 ft | 285 kts | 255° |
| 2026-04-29 18:08 | 34.66341 | 32.18268 | 9126 ft | 288 kts | 255° |
| 2026-04-29 18:08 | 34.66024 | 32.15863 | 9807 ft | 290 kts | 272° |
| 2026-04-29 18:08 | 34.66181 | 32.13408 | 10377 ft | 297 kts | 276° |
| 2026-04-29 18:08 | 34.66393 | 32.10813 | 10528 ft | 319 kts | 276° |
| 2026-04-29 18:09 | 34.66615 | 32.08047 | 10701 ft | 339 kts | 276° |
| 2026-04-29 18:09 | 34.66837 | 32.05139 | 11067 ft | 351 kts | 276° |
| 2026-04-29 18:09 | 34.67054 | 32.02165 | 11633 ft | 355 kts | 275° |
| 2026-04-29 18:09 | 34.67262 | 31.99214 | 12341 ft | 356 kts | 275° |
| 2026-04-29 18:10 | 34.67473 | 31.96169 | 12991 ft | 360 kts | 275° |
| 2026-04-29 18:10 | 34.67683 | 31.93120 | 13639 ft | 363 kts | 275° |
| 2026-04-29 18:10 | 34.68052 | 31.90079 | 14247 ft | 366 kts | 288° |
| 2026-04-29 18:10 | 34.69129 | 31.87331 | 14892 ft | 366 kts | 300° |
| 2026-04-29 18:11 | 34.70427 | 31.84659 | 15558 ft | 369 kts | 301° |
| 2026-04-29 18:11 | 34.71765 | 31.81977 | 16174 ft | 372 kts | 302° |
| 2026-04-29 18:11 | 34.73115 | 31.79278 | 16797 ft | 375 kts | 302° |
| 2026-04-29 18:11 | 34.74469 | 31.76553 | 17427 ft | 378 kts | 301° |
| 2026-04-29 18:12 | 34.75829 | 31.73798 | 18056 ft | 381 kts | 301° |
| 2026-04-29 18:12 | 34.77189 | 31.71024 | 18634 ft | 384 kts | 301° |
| 2026-04-29 18:12 | 34.78555 | 31.68224 | 19159 ft | 387 kts | 301° |
| 2026-04-29 18:12 | 34.79931 | 31.65396 | 19696 ft | 389 kts | 301° |
| 2026-04-29 18:13 | 34.81313 | 31.62550 | 20222 ft | 392 kts | 301° |
| 2026-04-29 18:13 | 34.82705 | 31.59679 | 20747 ft | 395 kts | 300° |
| 2026-04-29 18:13 | 34.84104 | 31.56789 | 21244 ft | 398 kts | 300° |
| 2026-04-29 18:13 | 34.85513 | 31.53878 | 21743 ft | 401 kts | 300° |
| 2026-04-29 18:14 | 34.86933 | 31.50941 | 22225 ft | 404 kts | 300° |
| 2026-04-29 18:14 | 34.88364 | 31.47980 | 22695 ft | 407 kts | 300° |
| 2026-04-29 18:14 | 34.89803 | 31.44998 | 23162 ft | 410 kts | 300° |
| 2026-04-29 18:14 | 34.91254 | 31.41989 | 23612 ft | 413 kts | 300° |
| 2026-04-29 18:15 | 34.92716 | 31.38957 | 24001 ft | 416 kts | 300° |
| 2026-04-29 18:15 | 34.94181 | 31.35914 | 24394 ft | 418 kts | 300° |
| 2026-04-29 18:15 | 34.95655 | 31.32850 | 24791 ft | 420 kts | 300° |
| 2026-04-29 18:15 | 34.97137 | 31.29767 | 25160 ft | 422 kts | 300° |
| 2026-04-29 18:16 | 34.98622 | 31.26675 | 25532 ft | 425 kts | 300° |
| 2026-04-29 18:16 | 35.00119 | 31.23553 | 25894 ft | 427 kts | 300° |
| 2026-04-29 18:16 | 35.01624 | 31.20413 | 26242 ft | 429 kts | 300° |
| 2026-04-29 18:16 | 35.03132 | 31.17265 | 26596 ft | 432 kts | 300° |
| 2026-04-29 18:17 | 35.04649 | 31.14095 | 26941 ft | 434 kts | 300° |
| 2026-04-29 18:17 | 35.06173 | 31.10908 | 27268 ft | 436 kts | 300° |
| 2026-04-29 18:17 | 35.07705 | 31.07698 | 27606 ft | 438 kts | 300° |
| 2026-04-29 18:17 | 35.09242 | 31.04477 | 27934 ft | 440 kts | 300° |
| 2026-04-29 18:18 | 35.10785 | 31.01242 | 28279 ft | 441 kts | 300° |
| 2026-04-29 18:18 | 35.11806 | 30.99097 | 28570 ft | 441 kts | 299° |
| 2026-04-29 18:18 | 35.13342 | 30.95869 | 29080 ft | 438 kts | 299° |
| 2026-04-29 18:18 | 35.14870 | 30.92659 | 29575 ft | 436 kts | 299° |
| 2026-04-29 18:19 | 35.16393 | 30.89453 | 30005 ft | 436 kts | 299° |
| 2026-04-29 18:19 | 35.17908 | 30.86247 | 30353 ft | 435 kts | 298° |
| 2026-04-29 18:19 | 35.19334 | 30.82988 | 30728 ft | 434 kts | 296° |
| 2026-04-29 18:19 | 35.20686 | 30.79710 | 31161 ft | 430 kts | 296° |
| 2026-04-29 18:20 | 35.22005 | 30.76437 | 31576 ft | 428 kts | 295° |
| 2026-04-29 18:20 | 35.23332 | 30.73133 | 31935 ft | 427 kts | 295° |
| 2026-04-29 18:20 | 35.24626 | 30.69923 | 32276 ft | 426 kts | 295° |
| 2026-04-29 18:20 | 35.25938 | 30.66687 | 32645 ft | 424 kts | 296° |
| 2026-04-29 18:21 | 35.27249 | 30.63465 | 33028 ft | 422 kts | 296° |
| 2026-04-29 18:21 | 35.28561 | 30.60248 | 33308 ft | 423 kts | 296° |
| 2026-04-29 18:21 | 35.29875 | 30.57029 | 33530 ft | 423 kts | 296° |
| 2026-04-29 18:21 | 35.31186 | 30.53816 | 33753 ft | 421 kts | 296° |
| 2026-04-29 18:22 | 35.32489 | 30.50620 | 33976 ft | 419 kts | 296° |
| 2026-04-29 18:22 | 35.35092 | 30.44222 | 34015 ft | 420 kts | 296° |
| 2026-04-29 18:23 | 35.37688 | 30.37830 | 34016 ft | 418 kts | 296° |
| 2026-04-29 18:23 | 35.40267 | 30.31466 | 34017 ft | 416 kts | 296° |
| 2026-04-29 18:24 | 35.42837 | 30.25112 | 34016 ft | 415 kts | 296° |
| 2026-04-29 18:24 | 35.45397 | 30.18770 | 34017 ft | 415 kts | 296° |
| 2026-04-29 18:25 | 35.47952 | 30.12428 | 34019 ft | 415 kts | 296° |
| 2026-04-29 18:25 | 35.50508 | 30.06075 | 34016 ft | 415 kts | 296° |
| 2026-04-29 18:26 | 35.53423 | 29.99962 | 34021 ft | 417 kts | 307° |
| 2026-04-29 18:26 | 35.57559 | 29.94967 | 34030 ft | 419 kts | 318° |
| 2026-04-29 18:27 | 35.62020 | 29.90344 | 34015 ft | 420 kts | 318° |
| 2026-04-29 18:27 | 35.66484 | 29.85690 | 34011 ft | 421 kts | 318° |
| 2026-04-29 18:28 | 35.70931 | 29.80998 | 34009 ft | 421 kts | 317° |
| 2026-04-29 18:28 | 35.75371 | 29.76287 | 34011 ft | 422 kts | 317° |
| 2026-04-29 18:29 | 35.79812 | 29.71567 | 34011 ft | 422 kts | 317° |
| 2026-04-29 18:29 | 35.84252 | 29.66842 | 34011 ft | 422 kts | 317° |
| 2026-04-29 18:30 | 35.88688 | 29.62114 | 34014 ft | 421 kts | 317° |
| 2026-04-29 18:30 | 35.93122 | 29.57382 | 34011 ft | 421 kts | 317° |
| 2026-04-29 18:31 | 35.97572 | 29.52679 | 34011 ft | 421 kts | 319° |
| 2026-04-29 18:31 | 36.02110 | 29.48107 | 34011 ft | 421 kts | 319° |
| 2026-04-29 18:32 | 36.06647 | 29.43544 | 34015 ft | 421 kts | 319° |
| 2026-04-29 18:32 | 36.13427 | 29.36663 | 34014 ft | 420 kts | 319° |
| 2026-04-29 18:33 | 36.17947 | 29.32063 | 34014 ft | 420 kts | 319° |
| 2026-04-29 18:33 | 36.22423 | 29.27414 | 34010 ft | 420 kts | 318° |
| 2026-04-29 18:34 | 36.26123 | 29.23514 | 34009 ft | 420 kts | 318° |
| 2026-04-29 18:34 | 36.31336 | 29.18035 | 34010 ft | 420 kts | 318° |
| 2026-04-29 18:35 | 36.35798 | 29.13344 | 34010 ft | 421 kts | 318° |
| 2026-04-29 18:35 | 36.40228 | 29.08678 | 34008 ft | 421 kts | 318° |
| 2026-04-29 18:36 | 36.44688 | 29.03971 | 34004 ft | 421 kts | 318° |
| 2026-04-29 18:36 | 36.49152 | 28.99253 | 34009 ft | 421 kts | 318° |
| 2026-04-29 18:37 | 36.53609 | 28.94534 | 34013 ft | 421 kts | 318° |
| 2026-04-29 18:37 | 36.58069 | 28.89806 | 34016 ft | 421 kts | 318° |
| 2026-04-29 18:38 | 36.62527 | 28.85070 | 34018 ft | 421 kts | 318° |
| 2026-04-29 18:38 | 36.66981 | 28.80334 | 34023 ft | 421 kts | 318° |
| 2026-04-29 18:39 | 36.71441 | 28.75593 | 34020 ft | 421 kts | 318° |
| 2026-04-29 18:39 | 36.75907 | 28.70864 | 34025 ft | 421 kts | 318° |
| 2026-04-29 18:40 | 36.80365 | 28.66136 | 34019 ft | 421 kts | 318° |
| 2026-04-29 18:40 | 36.84824 | 28.61397 | 34015 ft | 421 kts | 318° |
| 2026-04-29 18:41 | 36.93721 | 28.51914 | 34021 ft | 420 kts | 318° |
| 2026-04-29 18:42 | 36.98164 | 28.47167 | 34020 ft | 420 kts | 318° |
| 2026-04-29 18:42 | 37.02603 | 28.42416 | 34026 ft | 419 kts | 318° |
| 2026-04-29 18:43 | 37.07003 | 28.37702 | 34034 ft | 419 kts | 318° |
| 2026-04-29 18:43 | 37.11439 | 28.32911 | 34037 ft | 418 kts | 318° |
| 2026-04-29 18:44 | 37.15832 | 28.28141 | 34036 ft | 417 kts | 318° |
| 2026-04-29 18:44 | 37.20206 | 28.23425 | 34028 ft | 417 kts | 318° |
| 2026-04-29 18:45 | 37.24605 | 28.18686 | 34024 ft | 417 kts | 318° |
| 2026-04-29 18:45 | 37.28996 | 28.13944 | 34025 ft | 416 kts | 318° |
| 2026-04-29 18:46 | 37.33376 | 28.09190 | 34019 ft | 416 kts | 318° |
| 2026-04-29 18:46 | 37.37746 | 28.04421 | 34021 ft | 416 kts | 317° |
| 2026-04-29 18:47 | 37.42108 | 27.99650 | 34014 ft | 416 kts | 317° |
| 2026-04-29 18:47 | 37.46471 | 27.94873 | 34021 ft | 416 kts | 317° |
| 2026-04-29 18:48 | 37.50832 | 27.90092 | 34014 ft | 416 kts | 317° |
| 2026-04-29 18:48 | 37.55194 | 27.85302 | 34005 ft | 416 kts | 317° |
| 2026-04-29 18:49 | 37.59557 | 27.80502 | 34000 ft | 416 kts | 317° |
| 2026-04-29 18:49 | 37.63918 | 27.75699 | 34005 ft | 416 kts | 317° |
| 2026-04-29 18:50 | 37.68292 | 27.70871 | 34014 ft | 421 kts | 317° |
| 2026-04-29 18:50 | 37.72742 | 27.65951 | 34013 ft | 429 kts | 317° |
| 2026-04-29 18:51 | 37.77231 | 27.60982 | 33996 ft | 429 kts | 317° |
| 2026-04-29 18:51 | 37.81712 | 27.56012 | 33999 ft | 428 kts | 317° |
| 2026-04-29 18:52 | 37.86185 | 27.51044 | 34011 ft | 427 kts | 317° |
| 2026-04-29 18:52 | 37.90654 | 27.46086 | 34009 ft | 427 kts | 318° |
| 2026-04-29 18:53 | 37.95138 | 27.41173 | 34019 ft | 426 kts | 318° |
| 2026-04-29 18:53 | 37.99621 | 27.36260 | 34012 ft | 426 kts | 318° |
| 2026-04-29 18:54 | 38.04090 | 27.31347 | 34021 ft | 425 kts | 318° |
| 2026-04-29 18:54 | 38.08558 | 27.26422 | 34026 ft | 425 kts | 318° |
| 2026-04-29 18:55 | 38.13017 | 27.21497 | 34025 ft | 425 kts | 318° |
| 2026-04-29 18:55 | 38.17442 | 27.16603 | 34020 ft | 424 kts | 318° |
| 2026-04-29 18:56 | 38.21916 | 27.11645 | 34022 ft | 424 kts | 318° |
| 2026-04-29 18:56 | 38.26333 | 27.06742 | 34024 ft | 424 kts | 318° |
| 2026-04-29 18:57 | 38.30769 | 27.01811 | 34024 ft | 423 kts | 318° |
| 2026-04-29 18:57 | 38.35212 | 26.96890 | 34026 ft | 423 kts | 318° |
| 2026-04-29 18:58 | 38.39666 | 26.91981 | 34028 ft | 423 kts | 318° |
| 2026-04-29 18:58 | 38.44114 | 26.87070 | 34032 ft | 422 kts | 318° |
| 2026-04-29 18:59 | 38.48549 | 26.82159 | 34040 ft | 422 kts | 318° |
| 2026-04-29 18:59 | 38.52973 | 26.77250 | 34046 ft | 421 kts | 317° |
| 2026-04-29 19:00 | 38.57394 | 26.72337 | 34045 ft | 421 kts | 317° |
| 2026-04-29 19:00 | 38.61807 | 26.67423 | 34046 ft | 420 kts | 317° |
| 2026-04-29 19:01 | 38.66210 | 26.62514 | 34051 ft | 420 kts | 317° |
| 2026-04-29 19:01 | 38.70610 | 26.57597 | 34052 ft | 420 kts | 317° |
| 2026-04-29 19:02 | 38.74263 | 26.53510 | 34055 ft | 419 kts | 317° |
| 2026-04-29 19:02 | 38.79389 | 26.47765 | 34063 ft | 419 kts | 317° |
| 2026-04-29 19:03 | 38.83750 | 26.42805 | 34059 ft | 418 kts | 313° |
| 2026-04-29 19:03 | 38.87025 | 26.38255 | 34066 ft | 417 kts | 310° |
| 2026-04-29 19:04 | 38.90847 | 26.32641 | 34064 ft | 417 kts | 310° |
| 2026-04-29 19:04 | 38.94667 | 26.27035 | 34068 ft | 417 kts | 310° |
| 2026-04-29 19:05 | 38.98511 | 26.21440 | 34069 ft | 418 kts | 310° |
| 2026-04-29 19:05 | 39.02363 | 26.15848 | 34064 ft | 418 kts | 310° |
| 2026-04-29 19:06 | 39.06218 | 26.10251 | 34064 ft | 418 kts | 310° |
| 2026-04-29 19:07 | 39.11992 | 26.01848 | 34067 ft | 418 kts | 310° |
| 2026-04-29 19:07 | 39.15843 | 25.96232 | 34070 ft | 418 kts | 310° |
| 2026-04-29 19:08 | 39.19683 | 25.90620 | 34078 ft | 417 kts | 310° |
| 2026-04-29 19:08 | 39.23492 | 25.85044 | 34078 ft | 417 kts | 310° |
| 2026-04-29 19:09 | 39.27348 | 25.79388 | 34074 ft | 417 kts | 310° |
| 2026-04-29 19:09 | 39.31175 | 25.73766 | 34062 ft | 417 kts | 310° |
| 2026-04-29 19:10 | 39.34968 | 25.68183 | 34060 ft | 416 kts | 310° |
| 2026-04-29 19:10 | 39.38781 | 25.62561 | 34070 ft | 416 kts | 310° |
| 2026-04-29 19:11 | 39.42585 | 25.56941 | 34074 ft | 415 kts | 310° |
| 2026-04-29 19:11 | 39.46383 | 25.51321 | 34070 ft | 415 kts | 310° |
| 2026-04-29 19:12 | 39.50178 | 25.45695 | 34070 ft | 414 kts | 310° |
| 2026-04-29 19:12 | 39.53963 | 25.40073 | 34076 ft | 414 kts | 310° |
| 2026-04-29 19:13 | 39.57742 | 25.34451 | 34080 ft | 414 kts | 310° |
| 2026-04-29 19:13 | 39.61517 | 25.28825 | 34073 ft | 413 kts | 309° |
| 2026-04-29 19:14 | 39.65287 | 25.23195 | 34081 ft | 413 kts | 309° |
| 2026-04-29 19:14 | 39.69053 | 25.17561 | 34073 ft | 413 kts | 309° |
| 2026-04-29 19:15 | 39.72815 | 25.11922 | 34073 ft | 413 kts | 309° |
| 2026-04-29 19:15 | 39.76581 | 25.06268 | 34078 ft | 413 kts | 309° |
| 2026-04-29 19:16 | 39.80342 | 25.00611 | 34082 ft | 413 kts | 309° |
| 2026-04-29 19:16 | 39.84075 | 24.94985 | 34075 ft | 414 kts | 309° |
| 2026-04-29 19:17 | 39.87832 | 24.89314 | 34083 ft | 414 kts | 309° |
| 2026-04-29 19:17 | 39.91589 | 24.83631 | 34086 ft | 414 kts | 309° |
| 2026-04-29 19:18 | 39.95338 | 24.77950 | 34091 ft | 414 kts | 309° |
| 2026-04-29 19:18 | 39.99091 | 24.72254 | 34080 ft | 414 kts | 309° |
| 2026-04-29 19:19 | 40.02837 | 24.66556 | 34084 ft | 414 kts | 309° |
| 2026-04-29 19:19 | 40.06581 | 24.60853 | 34092 ft | 413 kts | 309° |
| 2026-04-29 19:20 | 40.10319 | 24.55147 | 34090 ft | 413 kts | 309° |
| 2026-04-29 19:20 | 40.14047 | 24.49446 | 34089 ft | 413 kts | 309° |
| 2026-04-29 19:21 | 40.17774 | 24.43736 | 34092 ft | 412 kts | 309° |
| 2026-04-29 19:21 | 40.21492 | 24.38030 | 34084 ft | 412 kts | 309° |
| 2026-04-29 19:22 | 40.25203 | 24.32323 | 34086 ft | 411 kts | 309° |
| 2026-04-29 19:22 | 40.28906 | 24.26618 | 34090 ft | 411 kts | 309° |
| 2026-04-29 19:23 | 40.32601 | 24.20915 | 34096 ft | 410 kts | 309° |
| 2026-04-29 19:23 | 40.36291 | 24.15209 | 34088 ft | 410 kts | 309° |
| 2026-04-29 19:24 | 40.39972 | 24.09507 | 34093 ft | 410 kts | 308° |
| 2026-04-29 19:24 | 40.43653 | 24.03794 | 34092 ft | 409 kts | 308° |
| 2026-04-29 19:25 | 40.47324 | 23.98086 | 34091 ft | 409 kts | 308° |
| 2026-04-29 19:25 | 40.50993 | 23.92370 | 34095 ft | 409 kts | 308° |
| 2026-04-29 19:26 | 40.54659 | 23.86647 | 34101 ft | 409 kts | 308° |
| 2026-04-29 19:26 | 40.58322 | 23.80919 | 34092 ft | 409 kts | 308° |
| 2026-04-29 19:27 | 40.61986 | 23.75179 | 34094 ft | 409 kts | 308° |
| 2026-04-29 19:27 | 40.65645 | 23.69437 | 34099 ft | 409 kts | 308° |
| 2026-04-29 19:28 | 40.69302 | 23.63687 | 34089 ft | 409 kts | 308° |
| 2026-04-29 19:28 | 40.72929 | 23.57973 | 34091 ft | 409 kts | 308° |
| 2026-04-29 19:29 | 40.76603 | 23.52173 | 34093 ft | 409 kts | 308° |
| 2026-04-29 19:29 | 40.80220 | 23.46454 | 34091 ft | 408 kts | 308° |
| 2026-04-29 19:30 | 40.83874 | 23.40664 | 34091 ft | 408 kts | 308° |
| 2026-04-29 19:30 | 40.87482 | 23.34937 | 34090 ft | 407 kts | 308° |
| 2026-04-29 19:31 | 40.91103 | 23.29178 | 34091 ft | 407 kts | 308° |
| 2026-04-29 19:31 | 40.94718 | 23.23418 | 34087 ft | 407 kts | 307° |
| 2026-04-29 19:32 | 40.98324 | 23.17662 | 34089 ft | 406 kts | 307° |
| 2026-04-29 19:32 | 41.01921 | 23.11907 | 34088 ft | 405 kts | 307° |
| 2026-04-29 19:33 | 41.05512 | 23.06153 | 34085 ft | 405 kts | 307° |
| 2026-04-29 19:33 | 41.09098 | 23.00397 | 34084 ft | 405 kts | 307° |
| 2026-04-29 19:34 | 41.12712 | 22.94669 | 34081 ft | 405 kts | 308° |
| 2026-04-29 19:34 | 41.16357 | 22.88982 | 34080 ft | 405 kts | 308° |
| 2026-04-29 19:35 | 41.19995 | 22.83279 | 34087 ft | 404 kts | 308° |
| 2026-04-29 19:35 | 41.23625 | 22.77567 | 34077 ft | 405 kts | 308° |
| 2026-04-29 19:36 | 41.27318 | 22.71914 | 34081 ft | 405 kts | 309° |
| 2026-04-29 19:36 | 41.31129 | 22.66393 | 34074 ft | 406 kts | 310° |
| 2026-04-29 19:37 | 41.34949 | 22.60860 | 34077 ft | 406 kts | 309° |
| 2026-04-29 19:37 | 41.38750 | 22.55309 | 34074 ft | 405 kts | 309° |
| 2026-04-29 19:38 | 41.42536 | 22.49751 | 34060 ft | 405 kts | 309° |
| 2026-04-29 19:38 | 41.46312 | 22.44190 | 34059 ft | 404 kts | 309° |
| 2026-04-29 19:39 | 41.50083 | 22.38626 | 34044 ft | 404 kts | 309° |
| 2026-04-29 19:39 | 41.53847 | 22.33061 | 34055 ft | 404 kts | 309° |
| 2026-04-29 19:40 | 41.57613 | 22.27484 | 34046 ft | 404 kts | 309° |
| 2026-04-29 19:40 | 41.61370 | 22.21911 | 34046 ft | 403 kts | 308° |
| 2026-04-29 19:41 | 41.65119 | 22.16337 | 34029 ft | 403 kts | 308° |
| 2026-04-29 19:41 | 41.68859 | 22.10767 | 34028 ft | 402 kts | 308° |
| 2026-04-29 19:42 | 41.72593 | 22.05195 | 34033 ft | 402 kts | 308° |
| 2026-04-29 19:42 | 41.76298 | 21.99657 | 34040 ft | 402 kts | 308° |
| 2026-04-29 19:43 | 41.80023 | 21.94077 | 34039 ft | 402 kts | 308° |
| 2026-04-29 19:43 | 41.83741 | 21.88499 | 34058 ft | 401 kts | 308° |
| 2026-04-29 19:44 | 41.87456 | 21.82914 | 34060 ft | 401 kts | 308° |
| 2026-04-29 19:44 | 41.91165 | 21.77327 | 34067 ft | 401 kts | 308° |
| 2026-04-29 19:45 | 41.94872 | 21.71733 | 34079 ft | 401 kts | 308° |
| 2026-04-29 19:45 | 41.98568 | 21.66144 | 34087 ft | 400 kts | 308° |
| 2026-04-29 19:46 | 42.02255 | 21.60557 | 34078 ft | 399 kts | 308° |
| 2026-04-29 19:46 | 42.05941 | 21.54964 | 34083 ft | 398 kts | 308° |
| 2026-04-29 19:47 | 42.09616 | 21.49374 | 34078 ft | 399 kts | 308° |
| 2026-04-29 19:47 | 42.13298 | 21.43765 | 34074 ft | 400 kts | 308° |
| 2026-04-29 19:48 | 42.16971 | 21.38142 | 34077 ft | 399 kts | 307° |
| 2026-04-29 19:48 | 42.20578 | 21.32445 | 34085 ft | 399 kts | 306° |
| 2026-04-29 19:49 | 42.24166 | 21.26725 | 34092 ft | 399 kts | 306° |
| 2026-04-29 19:49 | 42.27750 | 21.21014 | 34112 ft | 399 kts | 306° |
| 2026-04-29 19:50 | 42.31333 | 21.15305 | 34123 ft | 398 kts | 307° |
| 2026-04-29 19:50 | 42.34902 | 21.09610 | 34137 ft | 397 kts | 307° |
| 2026-04-29 19:51 | 42.37870 | 21.04868 | 34139 ft | 396 kts | 307° |
| 2026-04-29 19:51 | 42.41428 | 20.99171 | 34151 ft | 396 kts | 306° |
| 2026-04-29 19:52 | 42.44980 | 20.93472 | 34159 ft | 396 kts | 306° |
| 2026-04-29 19:52 | 42.48535 | 20.87759 | 34158 ft | 397 kts | 306° |
| 2026-04-29 19:53 | 42.52092 | 20.82030 | 34160 ft | 398 kts | 306° |
| 2026-04-29 19:53 | 42.55656 | 20.76279 | 34142 ft | 399 kts | 306° |
| 2026-04-29 19:54 | 42.61009 | 20.67620 | 34131 ft | 400 kts | 306° |
| 2026-04-29 19:54 | 42.64581 | 20.61829 | 34128 ft | 400 kts | 306° |
| 2026-04-29 19:55 | 42.68150 | 20.56030 | 34126 ft | 400 kts | 306° |
| 2026-04-29 19:55 | 42.71715 | 20.50227 | 34125 ft | 400 kts | 306° |
| 2026-04-29 19:56 | 42.75276 | 20.44419 | 34126 ft | 399 kts | 306° |
| 2026-04-29 19:56 | 42.78826 | 20.38617 | 34132 ft | 399 kts | 306° |
| 2026-04-29 19:57 | 42.82368 | 20.32818 | 34131 ft | 398 kts | 306° |
| 2026-04-29 19:57 | 42.86039 | 20.27155 | 34132 ft | 400 kts | 309° |
| 2026-04-29 19:58 | 42.89877 | 20.21660 | 34132 ft | 399 kts | 309° |
| 2026-04-29 19:58 | 42.93707 | 20.16188 | 34136 ft | 398 kts | 309° |
| 2026-04-29 19:59 | 42.97513 | 20.10700 | 34137 ft | 397 kts | 309° |
| 2026-04-29 19:59 | 43.01295 | 20.05211 | 34134 ft | 397 kts | 309° |
| 2026-04-29 20:00 | 43.05065 | 19.99720 | 34143 ft | 396 kts | 309° |
| 2026-04-29 20:00 | 43.08830 | 19.94225 | 34138 ft | 396 kts | 309° |
| 2026-04-29 20:01 | 43.12595 | 19.88719 | 34132 ft | 396 kts | 309° |
| 2026-04-29 20:01 | 43.16353 | 19.83215 | 34146 ft | 396 kts | 309° |
| 2026-04-29 20:02 | 43.20107 | 19.77705 | 34133 ft | 395 kts | 309° |
| 2026-04-29 20:02 | 43.23218 | 19.73131 | 34155 ft | 394 kts | 309° |
| 2026-04-29 20:03 | 43.27588 | 19.66692 | 34159 ft | 394 kts | 309° |
| 2026-04-29 20:03 | 43.31328 | 19.61169 | 34159 ft | 396 kts | 309° |
| 2026-04-29 20:04 | 43.35051 | 19.55660 | 34150 ft | 397 kts | 309° |
| 2026-04-29 20:04 | 43.38803 | 19.50100 | 34157 ft | 397 kts | 309° |
| 2026-04-29 20:05 | 43.42559 | 19.44523 | 34178 ft | 398 kts | 309° |
| 2026-04-29 20:05 | 43.46322 | 19.38922 | 34161 ft | 399 kts | 309° |
| 2026-04-29 20:06 | 43.50092 | 19.33302 | 34169 ft | 400 kts | 309° |
| 2026-04-29 20:06 | 43.53892 | 19.27626 | 34159 ft | 401 kts | 309° |
| 2026-04-29 20:07 | 43.57643 | 19.22012 | 34161 ft | 400 kts | 308° |
| 2026-04-29 20:07 | 43.61410 | 19.16362 | 34147 ft | 400 kts | 308° |
| 2026-04-29 20:08 | 43.64563 | 19.11625 | 34151 ft | 400 kts | 308° |
| 2026-04-29 20:08 | 43.68924 | 19.05059 | 34159 ft | 399 kts | 308° |
| 2026-04-29 20:09 | 43.72668 | 18.99411 | 34172 ft | 398 kts | 309° |
| 2026-04-29 20:09 | 43.76399 | 18.93776 | 34168 ft | 396 kts | 308° |
| 2026-04-29 20:10 | 43.80109 | 18.88152 | 34169 ft | 395 kts | 308° |
| 2026-04-29 20:10 | 43.83813 | 18.82530 | 34169 ft | 394 kts | 308° |
| 2026-04-29 20:11 | 43.87505 | 18.76914 | 34177 ft | 394 kts | 308° |
| 2026-04-29 20:11 | 43.91190 | 18.71298 | 34168 ft | 393 kts | 308° |
| 2026-04-29 20:12 | 43.94870 | 18.65679 | 34186 ft | 394 kts | 308° |
| 2026-04-29 20:12 | 43.98554 | 18.60041 | 34192 ft | 394 kts | 308° |
| 2026-04-29 20:13 | 44.01610 | 18.55357 | 34185 ft | 394 kts | 308° |
| 2026-04-29 20:13 | 44.05920 | 18.48739 | 34203 ft | 394 kts | 308° |
| 2026-04-29 20:14 | 44.09596 | 18.43082 | 34193 ft | 394 kts | 308° |
| 2026-04-29 20:14 | 44.13267 | 18.37420 | 34200 ft | 394 kts | 308° |
| 2026-04-29 20:15 | 44.16932 | 18.31758 | 34199 ft | 393 kts | 308° |
| 2026-04-29 20:15 | 44.20580 | 18.26109 | 34215 ft | 392 kts | 308° |
| 2026-04-29 20:16 | 44.24194 | 18.20502 | 34207 ft | 391 kts | 308° |
| 2026-04-29 20:16 | 44.27823 | 18.14861 | 34216 ft | 390 kts | 308° |
| 2026-04-29 20:17 | 44.31438 | 18.09229 | 34215 ft | 389 kts | 308° |
| 2026-04-29 20:17 | 44.35048 | 18.03595 | 34227 ft | 389 kts | 308° |
| 2026-04-29 20:18 | 44.38651 | 17.97960 | 34214 ft | 388 kts | 308° |
| 2026-04-29 20:18 | 44.42237 | 17.92340 | 34220 ft | 386 kts | 308° |
| 2026-04-29 20:19 | 44.45807 | 17.86735 | 34235 ft | 386 kts | 307° |
| 2026-04-29 20:19 | 44.49377 | 17.81116 | 34228 ft | 386 kts | 307° |
| 2026-04-29 20:20 | 44.52946 | 17.75490 | 34232 ft | 386 kts | 307° |
| 2026-04-29 20:20 | 44.56511 | 17.69859 | 34235 ft | 386 kts | 307° |
| 2026-04-29 20:21 | 44.60066 | 17.64232 | 34244 ft | 386 kts | 307° |
| 2026-04-29 20:21 | 44.63631 | 17.58578 | 34100 ft | 389 kts | 307° |
| 2026-04-29 20:22 | 44.65430 | 17.55718 | 33952 ft | 392 kts | 307° |
| 2026-04-29 20:22 | 44.67244 | 17.52832 | 33757 ft | 394 kts | 307° |
| 2026-04-29 20:22 | 44.69046 | 17.49965 | 33516 ft | 393 kts | 307° |
| 2026-04-29 20:22 | 44.70862 | 17.47074 | 33276 ft | 391 kts | 307° |
| 2026-04-29 20:23 | 44.72658 | 17.44210 | 33042 ft | 390 kts | 307° |
| 2026-04-29 20:23 | 44.74453 | 17.41346 | 32768 ft | 390 kts | 307° |
| 2026-04-29 20:23 | 44.76248 | 17.38476 | 32458 ft | 392 kts | 307° |
| 2026-04-29 20:23 | 44.78053 | 17.35587 | 32127 ft | 394 kts | 307° |
| 2026-04-29 20:24 | 44.79869 | 17.32676 | 31751 ft | 397 kts | 307° |
| 2026-04-29 20:24 | 44.81694 | 17.29750 | 31373 ft | 399 kts | 307° |
| 2026-04-29 20:24 | 44.83529 | 17.26805 | 31005 ft | 401 kts | 307° |
| 2026-04-29 20:24 | 44.85374 | 17.23841 | 30641 ft | 402 kts | 307° |
| 2026-04-29 20:25 | 44.87218 | 17.20876 | 30262 ft | 403 kts | 307° |
| 2026-04-29 20:25 | 44.89069 | 17.17896 | 29819 ft | 404 kts | 308° |
| 2026-04-29 20:25 | 44.90925 | 17.14906 | 29359 ft | 405 kts | 308° |
| 2026-04-29 20:25 | 44.92780 | 17.11913 | 28934 ft | 405 kts | 308° |
| 2026-04-29 20:26 | 44.94636 | 17.08917 | 28489 ft | 406 kts | 308° |
| 2026-04-29 20:26 | 44.96493 | 17.05915 | 28066 ft | 406 kts | 308° |
| 2026-04-29 20:26 | 44.98353 | 17.02912 | 27646 ft | 407 kts | 308° |
| 2026-04-29 20:26 | 45.00201 | 16.99935 | 27164 ft | 410 kts | 308° |
| 2026-04-29 20:27 | 45.02111 | 16.96856 | 26698 ft | 412 kts | 308° |
| 2026-04-29 20:27 | 45.03363 | 16.94837 | 26392 ft | 411 kts | 308° |
| 2026-04-29 20:27 | 45.05821 | 16.90871 | 25792 ft | 400 kts | 308° |
| 2026-04-29 20:27 | 45.07646 | 16.87922 | 25348 ft | 397 kts | 308° |
| 2026-04-29 20:28 | 45.09462 | 16.84978 | 24924 ft | 397 kts | 308° |
| 2026-04-29 20:28 | 45.11278 | 16.82032 | 24505 ft | 397 kts | 308° |
| 2026-04-29 20:28 | 45.13094 | 16.79082 | 24081 ft | 397 kts | 308° |
| 2026-04-29 20:28 | 45.14899 | 16.76147 | 23642 ft | 397 kts | 308° |
| 2026-04-29 20:29 | 45.16719 | 16.73187 | 23145 ft | 396 kts | 308° |
| 2026-04-29 20:29 | 45.18525 | 16.70248 | 22663 ft | 394 kts | 308° |
| 2026-04-29 20:29 | 45.20317 | 16.67328 | 22183 ft | 392 kts | 308° |
| 2026-04-29 20:29 | 45.22144 | 16.64483 | 21720 ft | 389 kts | 310° |
| 2026-04-29 20:30 | 45.24011 | 16.61707 | 21255 ft | 387 kts | 311° |
| 2026-04-29 20:30 | 45.25868 | 16.58977 | 20799 ft | 384 kts | 311° |
| 2026-04-29 20:30 | 45.27716 | 16.56258 | 20351 ft | 381 kts | 311° |
| 2026-04-29 20:30 | 45.29547 | 16.53547 | 19892 ft | 380 kts | 311° |
| 2026-04-29 20:31 | 45.31365 | 16.50838 | 19406 ft | 378 kts | 311° |
| 2026-04-29 20:31 | 45.33173 | 16.48135 | 18932 ft | 377 kts | 311° |
| 2026-04-29 20:31 | 45.34980 | 16.45427 | 18445 ft | 376 kts | 311° |
| 2026-04-29 20:31 | 45.36770 | 16.42738 | 17907 ft | 374 kts | 311° |
| 2026-04-29 20:32 | 45.38554 | 16.40055 | 17381 ft | 372 kts | 311° |
| 2026-04-29 20:32 | 45.40329 | 16.37382 | 16862 ft | 371 kts | 311° |
| 2026-04-29 20:32 | 45.42099 | 16.34716 | 16344 ft | 369 kts | 311° |
| 2026-04-29 20:32 | 45.43284 | 16.32929 | 16006 ft | 369 kts | 311° |
| 2026-04-29 20:33 | 45.45611 | 16.29417 | 15352 ft | 367 kts | 312° |
| 2026-04-29 20:33 | 45.47358 | 16.26777 | 14863 ft | 365 kts | 312° |
| 2026-04-29 20:33 | 45.49089 | 16.24160 | 14384 ft | 361 kts | 312° |
| 2026-04-29 20:33 | 45.50800 | 16.21570 | 13883 ft | 357 kts | 312° |
| 2026-04-29 20:34 | 45.52495 | 16.19001 | 13348 ft | 353 kts | 313° |
| 2026-04-29 20:34 | 45.54169 | 16.16463 | 12823 ft | 349 kts | 313° |
| 2026-04-29 20:34 | 45.56021 | 16.14311 | 12271 ft | 341 kts | 332° |
| 2026-04-29 20:34 | 45.58235 | 16.13263 | 11766 ft | 334 kts | 351° |
| 2026-04-29 20:35 | 45.60518 | 16.13337 | 11347 ft | 326 kts | 10° |
| 2026-04-29 20:35 | 45.62633 | 16.14339 | 10977 ft | 317 kts | 25° |
| 2026-04-29 20:35 | 45.64419 | 16.16101 | 10720 ft | 307 kts | 41° |
| 2026-04-29 20:35 | 45.65895 | 16.18217 | 10519 ft | 294 kts | 45° |
| 2026-04-29 20:36 | 45.67254 | 16.20328 | 10344 ft | 284 kts | 46° |
| 2026-04-29 20:36 | 45.68114 | 16.21681 | 10242 ft | 276 kts | 46° |
| 2026-04-29 20:36 | 45.69393 | 16.23683 | 10073 ft | 265 kts | 46° |
| 2026-04-29 20:36 | 45.70614 | 16.25582 | 9888 ft | 255 kts | 45° |
| 2026-04-29 20:37 | 45.71797 | 16.27410 | 9713 ft | 245 kts | 45° |
| 2026-04-29 20:37 | 45.72934 | 16.29160 | 9524 ft | 236 kts | 45° |
| 2026-04-29 20:37 | 45.74034 | 16.30850 | 9362 ft | 229 kts | 45° |
| 2026-04-29 20:37 | 45.75110 | 16.32501 | 9206 ft | 226 kts | 45° |
| 2026-04-29 20:38 | 45.76181 | 16.34143 | 9048 ft | 225 kts | 45° |
| 2026-04-29 20:38 | 45.77262 | 16.35799 | 8888 ft | 224 kts | 45° |
| 2026-04-29 20:38 | 45.78310 | 16.37405 | 8702 ft | 224 kts | 45° |
| 2026-04-29 20:38 | 45.79376 | 16.39040 | 8496 ft | 225 kts | 45° |
| 2026-04-29 20:39 | 45.80449 | 16.40687 | 8273 ft | 227 kts | 46° |
| 2026-04-29 20:39 | 45.81522 | 16.42336 | 8020 ft | 224 kts | 46° |
| 2026-04-29 20:39 | 45.82577 | 16.43957 | 7759 ft | 220 kts | 46° |
| 2026-04-29 20:39 | 45.83608 | 16.45545 | 7509 ft | 215 kts | 46° |
| 2026-04-29 20:40 | 45.84620 | 16.47103 | 7243 ft | 212 kts | 46° |
| 2026-04-29 20:40 | 45.85629 | 16.48651 | 6991 ft | 208 kts | 44° |
| 2026-04-29 20:40 | 45.86855 | 16.49702 | 6724 ft | 209 kts | 14° |
| 2026-04-29 20:40 | 45.88287 | 16.49666 | 6478 ft | 213 kts | 348° |
| 2026-04-29 20:41 | 45.89601 | 16.48643 | 6228 ft | 220 kts | 325° |
| 2026-04-29 20:41 | 45.90757 | 16.47155 | 5981 ft | 221 kts | 322° |
| 2026-04-29 20:41 | 45.91864 | 16.45650 | 5724 ft | 222 kts | 322° |
| 2026-04-29 20:41 | 45.92987 | 16.44129 | 5506 ft | 220 kts | 322° |
| 2026-04-29 20:42 | 45.94090 | 16.42639 | 5245 ft | 217 kts | 321° |
| 2026-04-29 20:42 | 45.94876 | 16.40799 | 5020 ft | 221 kts | 284° |
| 2026-04-29 20:42 | 45.94633 | 16.38691 | 5008 ft | 217 kts | 240° |
| 2026-04-29 20:42 | 45.93770 | 16.36968 | 5018 ft | 208 kts | 233° |
| 2026-04-29 20:43 | 45.92871 | 16.35385 | 4999 ft | 202 kts | 230° |
| 2026-04-29 20:43 | 45.91951 | 16.33877 | 4999 ft | 200 kts | 229° |
| 2026-04-29 20:43 | 45.91022 | 16.32384 | 4987 ft | 203 kts | 228° |
| 2026-04-29 20:43 | 45.90057 | 16.30884 | 4687 ft | 204 kts | 227° |
| 2026-04-29 20:44 | 45.89093 | 16.29410 | 4404 ft | 201 kts | 227° |
| 2026-04-29 20:44 | 45.88145 | 16.27969 | 4132 ft | 197 kts | 227° |
| 2026-04-29 20:44 | 45.87213 | 16.26552 | 3890 ft | 194 kts | 227° |
| 2026-04-29 20:44 | 45.86287 | 16.25144 | 3623 ft | 193 kts | 227° |
| 2026-04-29 20:45 | 45.85370 | 16.23749 | 3364 ft | 192 kts | 227° |
| 2026-04-29 20:45 | 45.84459 | 16.22363 | 3103 ft | 190 kts | 227° |
| 2026-04-29 20:45 | 45.83565 | 16.21002 | 2885 ft | 184 kts | 227° |
| 2026-04-29 20:45 | 45.82689 | 16.19668 | 2589 ft | 182 kts | 227° |
| 2026-04-29 20:46 | 45.81852 | 16.18395 | 2335 ft | 169 kts | 227° |
| 2026-04-29 20:46 | 45.81067 | 16.17200 | 2127 ft | 163 kts | 227° |
| 2026-04-29 20:46 | 45.80295 | 16.16023 | 1903 ft | 160 kts | 227° |
| 2026-04-29 20:46 | 45.79539 | 16.14873 | 1684 ft | 157 kts | 227° |
| 2026-04-29 20:47 | 45.78795 | 16.13738 | 1467 ft | 155 kts | 227° |
| 2026-04-29 20:47 | 45.78064 | 16.12625 | 1239 ft | 151 kts | 227° |
| 2026-04-29 20:47 | 45.77357 | 16.11547 | 1024 ft | 147 kts | 227° |
| 2026-04-29 20:47 | 45.76660 | 16.10485 | 823 ft | 145 kts | 227° |
| 2026-04-29 20:48 | 45.75969 | 16.09430 | 626 ft | 145 kts | 227° |
| 2026-04-29 20:48 | 45.75274 | 16.08377 | 415 ft | 145 kts | 227° |
| 2026-04-29 20:48 | 45.74611 | 16.07360 | 360 ft | 124 kts | 226° |
| 2026-04-29 20:48 | 45.74164 | 16.06681 | 362 ft | 63 kts | 227° |
| 2026-04-29 20:49 | 45.73991 | 16.06419 | 363 ft | 16 kts | 227° |
| 2026-04-29 20:49 | 45.73923 | 16.06316 | 361 ft | 14 kts | 226° |
| 2026-04-29 20:49 | 45.73851 | 16.06241 | 362 ft | 11 kts | 173° |
| 2026-04-29 20:49 | 45.73843 | 16.06252 | 362 ft | 2 kts | 132° |
| 2026-04-29 20:50 | 45.73825 | 16.06280 | 360 ft | 6 kts | 132° |
| 2026-04-29 20:50 | 45.73783 | 16.06339 | 363 ft | 10 kts | 135° |
| 2026-04-29 20:50 | 45.73745 | 16.06393 | 364 ft | 6 kts | 136° |
| 2026-04-29 20:50 | 45.73706 | 16.06395 | 360 ft | 6 kts | 224° |
| 2026-04-29 20:51 | 45.73678 | 16.06346 | 358 ft | 6 kts | 231° |
| 2026-04-29 20:51 | 45.73651 | 16.06298 | 358 ft | 6 kts | 230° |
| 2026-04-29 20:51 | 45.73622 | 16.06254 | 362 ft | 7 kts | 227° |
| 2026-04-29 20:51 | 45.73578 | 16.06186 | 360 ft | 11 kts | 226° |
| 2026-04-29 20:52 | 45.73528 | 16.06111 | 358 ft | 10 kts | 227° |
| 2026-04-29 20:52 | 45.73481 | 16.06038 | 361 ft | 9 kts | 227° |
| 2026-04-29 20:52 | 45.73439 | 16.05975 | 358 ft | 8 kts | 227° |
| 2026-04-29 20:52 | 45.73396 | 16.05932 | 360 ft | 7 kts | 174° |
| 2026-04-29 20:53 | 45.73370 | 16.05987 | 361 ft | 7 kts | 84° |
| 2026-04-29 20:53 | 45.73411 | 16.06033 | 362 ft | 10 kts | 18° |
| 2026-04-29 20:53 | 45.73484 | 16.06060 | 359 ft | 11 kts | 27° |
| 2026-04-29 20:53 | 45.73543 | 16.06128 | 358 ft | 11 kts | 48° |
| 2026-04-29 20:54 | 45.73641 | 16.06281 | 358 ft | 10 kts | 46° |
| 2026-04-29 20:54 | 45.73705 | 16.06377 | 358 ft | 20 kts | 47° |
| 2026-04-29 20:54 | 45.73816 | 16.06546 | 361 ft | 23 kts | 46° |
| 2026-04-29 20:55 | 45.73923 | 16.06708 | 361 ft | 22 kts | 47° |
| 2026-04-29 20:55 | 45.74028 | 16.06869 | 362 ft | 22 kts | 46° |
| 2026-04-29 20:55 | 45.74131 | 16.07024 | 361 ft | 21 kts | 46° |
| 2026-04-29 20:55 | 45.74210 | 16.07184 | 358 ft | 17 kts | 78° |
| 2026-04-29 20:56 | 45.74139 | 16.07309 | 362 ft | 16 kts | 136° |
| 2026-04-29 20:56 | 45.74065 | 16.07426 | 358 ft | 16 kts | 105° |
| 2026-04-29 20:56 | 45.74117 | 16.07553 | 358 ft | 15 kts | 46° |
| 2026-04-29 20:56 | 45.74189 | 16.07661 | 365 ft | 15 kts | 47° |
| 2026-04-29 20:57 | 45.74241 | 16.07741 | 358 ft | 11 kts | 47° |
| 2026-04-29 20:57 | 45.74290 | 16.07818 | 358 ft | 10 kts | 51° |
| 2026-04-29 20:57 | 45.74274 | 16.07891 | 362 ft | 8 kts | 163° |
| 2026-04-29 20:57 | 45.74244 | 16.07916 | 358 ft | 0 kts | 137° |
| 2026-04-29 20:58 | 45.74242 | 16.07919 | 358 ft | 0 kts | 136° |